Time;durP1;ratioP1;P1;durP2;ratioP2;P2;SDS_P1;SDS_P2;PMS_P1;PMS_P2;Temp;Humidity;BMP_temperature;BMP_pressure;BME280_temperature;BME280_humidity;BME280_pressure;Samples;Min_cycle;Max_cycle;Signal;HPM_P1;HPM_P2
2021/03/11 00:00:09;;;;;;;;;18.33;18.33;;;;;;;;12193791;29;8852;-53
2021/03/11 00:06:14;;;;;;;;;29.67;25.00;;;;;;;;12193120;29;8871;-52
2021/03/11 00:15:10;;;;;;;;;23.33;21.00;;;;;;;;12654734;27;13349;-50
2021/03/11 00:21:13;;;;;;;;;34.00;28.00;;;;;;;;12664082;28;8829;-48
2021/03/11 00:27:14;;;;;;;;;24.67;22.67;;;;;;;;12626564;28;9610;-52
2021/03/11 00:33:16;;;;;;;;;27.00;23.33;;;;;;;;12625155;28;8872;-49
2021/03/11 00:39:18;;;;;;;;;25.33;20.33;;;;;;;;12624873;28;8829;-50
2021/03/11 00:45:20;;;;;;;;;30.33;27.00;;;;;;;;12626052;28;8852;-49
2021/03/11 00:51:23;;;;;;;;;27.33;23.33;;;;;;;;12605798;28;8864;-53
2021/03/11 00:57:31;;;;;;;;;30.00;25.67;;;;;;;;12640471;28;8976;-51
2021/03/11 01:03:33;;;;;;;;;32.33;30.67;;;;;;;;12623728;28;8950;-51
2021/03/11 01:09:36;;;;;;;;;38.00;24.33;;;;;;;;12622072;28;8954;-49
2021/03/11 01:15:39;;;;;;;;;34.67;26.33;;;;;;;;12621144;28;9745;-51
2021/03/11 01:21:41;;;;;;;;;34.00;24.00;;;;;;;;12612885;28;8940;-52
2021/03/11 01:27:50;;;;;;;;;30.33;26.33;;;;;;;;12587386;28;8848;-50
2021/03/11 01:33:52;;;;;;;;;26.33;22.67;;;;;;;;12585948;28;8859;-54
2021/03/11 01:39:53;;;;;;;;;36.67;28.67;;;;;;;;12586326;28;8866;-51
2021/03/11 01:45:56;;;;;;;;;30.67;25.67;;;;;;;;12586259;28;8832;-53
2021/03/11 01:51:57;;;;;;;;;32.33;28.00;;;;;;;;12583926;28;8848;-52
2021/03/11 01:58:12;;;;;;;;;33.67;27.00;;;;;;;;12587121;28;8848;-55
2021/03/11 02:04:13;;;;;;;;;34.33;31.33;;;;;;;;12584050;28;8882;-52
2021/03/11 02:10:22;;;;;;;;;36.67;30.33;;;;;;;;12584991;28;8836;-51
2021/03/11 02:16:48;;;;;;;;;34.67;27.33;;;;;;;;12584642;28;8836;-51
2021/03/11 02:23:04;;;;;;;;;30.00;28.00;;;;;;;;12584139;28;9628;-53
2021/03/11 02:29:09;;;;;;;;;30.67;28.00;;;;;;;;12584528;28;8838;-53
2021/03/11 02:35:11;;;;;;;;;36.33;30.00;;;;;;;;12582121;28;8871;-51
2021/03/11 02:41:18;;;;;;;;;42.33;34.67;;;;;;;;12583515;28;8844;-52
2021/03/11 02:47:20;;;;;;;;;35.67;33.00;;;;;;;;12583223;28;8847;-50
2021/03/11 02:53:23;;;;;;;;;39.00;33.33;;;;;;;;12582653;28;8836;-49
2021/03/11 02:59:27;;;;;;;;;33.33;29.33;;;;;;;;12582797;28;8832;-52
2021/03/11 03:05:30;;;;;;;;;41.67;32.67;;;;;;;;12581271;28;8824;-49
2021/03/11 03:11:35;;;;;;;;;33.33;28.00;;;;;;;;12583026;28;8864;-52
2021/03/11 03:17:38;;;;;;;;;24.00;24.00;;;;;;;;12580590;28;9655;-52
2021/03/11 03:23:40;;;;;;;;;24.00;21.67;;;;;;;;12580187;28;8832;-51
2021/03/11 03:29:42;;;;;;;;;30.33;23.00;;;;;;;;12581278;28;8944;-48
2021/03/11 03:35:44;;;;;;;;;20.00;16.67;;;;;;;;12580800;28;8828;-51
2021/03/11 03:41:48;;;;;;;;;30.33;26.33;;;;;;;;12581375;28;8866;-50
2021/03/11 03:47:50;;;;;;;;;30.67;29.33;;;;;;;;12579204;28;8851;-53
2021/03/11 03:53:57;;;;;;;;;34.00;30.67;;;;;;;;12579407;28;8832;-52
2021/03/11 03:59:58;;;;;;;;;32.33;27.67;;;;;;;;12579268;28;8874;-52
2021/03/11 04:06:00;;;;;;;;;35.33;30.33;;;;;;;;12580296;28;9623;-52
2021/03/11 04:12:03;;;;;;;;;27.67;27.67;;;;;;;;12581043;28;8958;-50
2021/03/11 04:18:06;;;;;;;;;30.67;28.67;;;;;;;;12579653;28;8843;-49
2021/03/11 04:24:08;;;;;;;;;27.67;21.33;;;;;;;;12580801;28;8840;-51
2021/03/11 04:30:11;;;;;;;;;34.00;30.33;;;;;;;;12578970;28;11140;-50
2021/03/11 04:36:13;;;;;;;;;39.00;34.67;;;;;;;;12578569;28;8851;-48
2021/03/11 04:42:14;;;;;;;;;15.33;15.33;;;;;;;;12580034;28;8844;-49
2021/03/11 04:48:17;;;;;;;;;35.00;29.00;;;;;;;;12578675;28;8839;-51
2021/03/11 04:54:19;;;;;;;;;36.67;33.33;;;;;;;;12580059;28;8836;-49
2021/03/11 05:07:05;;;;;;;;;42.33;32.00;;;;;;;;12103936;24;8923;-54
2021/03/11 05:13:06;;;;;;;;;41.00;34.00;;;;;;;;12014307;29;8887;-52
2021/03/11 05:19:08;;;;;;;;;33.67;30.33;;;;;;;;12014855;29;8864;-54
2021/03/11 05:25:11;;;;;;;;;33.67;29.33;;;;;;;;12014711;29;8864;-52
2021/03/11 05:31:12;;;;;;;;;41.33;36.33;;;;;;;;12036936;29;8909;-51
2021/03/11 05:37:14;;;;;;;;;34.67;33.33;;;;;;;;12038991;29;8872;-53
2021/03/11 05:43:15;;;;;;;;;26.33;24.67;;;;;;;;12054133;29;8946;-54
2021/03/11 05:49:19;;;;;;;;;42.33;33.33;;;;;;;;12059987;29;8865;-55
2021/03/11 05:55:20;;;;;;;;;36.00;33.00;;;;;;;;12058496;29;8908;-55
2021/03/11 06:01:29;;;;;;;;;32.67;28.00;;;;;;;;12053182;29;8881;-56
2021/03/11 06:07:30;;;;;;;;;34.33;30.67;;;;;;;;12011667;29;9622;-54
2021/03/11 06:13:32;;;;;;;;;35.67;34.67;;;;;;;;12025685;29;8914;-55
2021/03/11 06:19:34;;;;;;;;;36.67;32.33;;;;;;;;11998311;29;9375;-58
2021/03/11 06:25:40;;;;;;;;;39.00;33.00;;;;;;;;12008994;29;8879;-53
2021/03/11 06:31:44;;;;;;;;;33.33;28.00;;;;;;;;12011010;29;8879;-57
2021/03/11 06:37:48;;;;;;;;;40.00;32.33;;;;;;;;11977902;29;8848;-57
2021/03/11 06:43:55;;;;;;;;;31.33;28.67;;;;;;;;11989485;29;8883;-54
2021/03/11 06:50:01;;;;;;;;;30.00;27.00;;;;;;;;11996220;29;8887;-55
2021/03/11 06:56:19;;;;;;;;;39.00;34.00;;;;;;;;11996299;29;8852;-58
2021/03/11 07:02:22;;;;;;;;;37.00;30.00;;;;;;;;11984783;29;8891;-59
2021/03/11 07:08:23;;;;;;;;;50.00;42.75;;;;;;;;12000096;29;10156;-56
2021/03/11 07:14:28;;;;;;;;;42.75;37.25;;;;;;;;12048738;24;8905;-56
2021/03/11 07:20:31;;;;;;;;;42.25;39.75;;;;;;;;12056402;29;8905;-59
2021/03/11 07:26:35;;;;;;;;;43.25;36.75;;;;;;;;12029011;29;8909;-55
2021/03/11 07:32:39;;;;;;;;;33.25;31.75;;;;;;;;12034794;29;8877;-58
2021/03/11 07:38:41;;;;;;;;;46.75;41.50;;;;;;;;12048962;29;8880;-54
2021/03/11 07:44:46;;;;;;;;;38.25;34.25;;;;;;;;12044996;29;8865;-56
2021/03/11 07:50:50;;;;;;;;;30.50;26.00;;;;;;;;12017404;29;8883;-55
2021/03/11 07:56:56;;;;;;;;;33.75;31.00;;;;;;;;12029067;29;8878;-53
2021/03/11 08:03:04;;;;;;;;;34.25;31.75;;;;;;;;12029091;29;8876;-51
2021/03/11 08:09:05;;;;;;;;;26.75;23.75;;;;;;;;12011592;29;8864;-57
2021/03/11 08:15:29;;;;;;;;;37.00;33.00;;;;;;;;12005693;29;8888;-57
2021/03/11 08:21:34;;;;;;;;;50.33;45.00;;;;;;;;12005278;29;8891;-55
2021/03/11 08:27:35;;;;;;;;;64.67;53.33;;;;;;;;12009050;29;8896;-57
2021/03/11 08:33:46;;;;;;;;;53.67;49.67;;;;;;;;12010712;29;8873;-55
2021/03/11 08:39:49;;;;;;;;;29.00;27.00;;;;;;;;12024774;29;8860;-56
2021/03/11 08:45:52;;;;;;;;;64.25;51.25;;;;;;;;12008445;29;9046;-57
2021/03/11 08:51:53;;;;;;;;;47.00;42.25;;;;;;;;12016045;29;8918;-55
2021/03/11 08:57:55;;;;;;;;;77.67;59.67;;;;;;;;12006671;29;8900;-57
2021/03/11 09:04:01;;;;;;;;;37.25;34.75;;;;;;;;12011357;29;8890;-56
2021/03/11 09:10:15;;;;;;;;;45.75;43.00;;;;;;;;12010818;29;8910;-58
2021/03/11 09:16:23;;;;;;;;;37.50;33.00;;;;;;;;12013694;29;8982;-53
2021/03/11 09:22:33;;;;;;;;;52.00;44.00;;;;;;;;12006965;29;8875;-56
2021/03/11 09:28:36;;;;;;;;;35.50;33.75;;;;;;;;12005702;29;8986;-58
2021/03/11 09:34:52;;;;;;;;;31.50;29.50;;;;;;;;12003542;29;8899;-59
2021/03/11 09:41:02;;;;;;;;;40.75;39.50;;;;;;;;12007311;29;8891;-55
2021/03/11 09:47:03;;;;;;;;;41.00;35.75;;;;;;;;12006662;29;8879;-56
2021/03/11 09:53:05;;;;;;;;;36.00;33.75;;;;;;;;12005245;29;8911;-55
2021/03/11 09:59:12;;;;;;;;;37.25;35.75;;;;;;;;12007225;29;9888;-57
2021/03/11 10:05:14;;;;;;;;;36.25;31.00;;;;;;;;12003786;29;8911;-56
2021/03/11 10:11:21;;;;;;;;;34.00;33.00;;;;;;;;12001998;29;8919;-56
2021/03/11 10:17:26;;;;;;;;;37.50;36.25;;;;;;;;12001950;29;8892;-56
2021/03/11 10:23:29;;;;;;;;;40.00;37.25;;;;;;;;12002233;29;9617;-55
2021/03/11 10:29:32;;;;;;;;;38.75;32.50;;;;;;;;12002663;29;8907;-58
2021/03/11 10:35:38;;;;;;;;;43.00;33.75;;;;;;;;12007235;29;8904;-58
2021/03/11 10:41:59;;;;;;;;;36.75;32.00;;;;;;;;12008167;29;9002;-58
2021/03/11 10:48:04;;;;;;;;;39.25;33.25;;;;;;;;12002797;29;9080;-56
2021/03/11 10:54:06;;;;;;;;;38.25;35.75;;;;;;;;12007442;29;8914;-59
2021/03/11 11:00:11;;;;;;;;;34.50;25.25;;;;;;;;12003920;29;8875;-58
2021/03/11 11:06:16;;;;;;;;;25.50;21.50;;;;;;;;12019718;29;8857;-57
2021/03/11 11:12:18;;;;;;;;;29.50;26.50;;;;;;;;12006599;29;8880;-56
2021/03/11 11:18:20;;;;;;;;;37.50;36.50;;;;;;;;12005932;29;8861;-57
2021/03/11 11:24:22;;;;;;;;;37.00;31.25;;;;;;;;11995985;29;8886;-57
2021/03/11 11:30:25;;;;;;;;;41.25;33.00;;;;;;;;11997250;29;8895;-54
2021/03/11 11:36:27;;;;;;;;;31.75;30.25;;;;;;;;12003679;29;8864;-57
2021/03/11 11:42:28;;;;;;;;;32.50;31.25;;;;;;;;12006596;29;8876;-55
2021/03/11 11:48:30;;;;;;;;;37.00;35.50;;;;;;;;12002709;29;8860;-55
2021/03/11 11:54:31;;;;;;;;;46.25;42.75;;;;;;;;12001034;29;8884;-58
2021/03/11 12:00:33;;;;;;;;;46.25;40.75;;;;;;;;12003371;29;8939;-57
2021/03/11 12:06:35;;;;;;;;;44.75;39.00;;;;;;;;11999313;29;8909;-57
2021/03/11 12:12:38;;;;;;;;;32.50;29.25;;;;;;;;11996076;29;8976;-55
2021/03/11 12:18:39;;;;;;;;;39.00;35.00;;;;;;;;11990224;29;8986;-56
2021/03/11 12:24:41;;;;;;;;;37.00;33.25;;;;;;;;12001057;29;9696;-57
2021/03/11 12:30:42;;;;;;;;;39.75;37.00;;;;;;;;11991198;29;8882;-54
2021/03/11 12:36:44;;;;;;;;;31.00;27.25;;;;;;;;11999528;29;9331;-54
2021/03/11 12:42:49;;;;;;;;;45.00;40.00;;;;;;;;12000661;29;10160;-56
2021/03/11 12:48:50;;;;;;;;;41.50;36.50;;;;;;;;12008335;29;8887;-52
2021/03/11 12:54:52;;;;;;;;;31.00;28.75;;;;;;;;12004692;29;8860;-57
2021/03/11 13:00:54;;;;;;;;;35.00;33.75;;;;;;;;12014602;29;8917;-57
2021/03/11 13:06:55;;;;;;;;;32.25;31.00;;;;;;;;11998142;29;8892;-58
2021/03/11 13:12:57;;;;;;;;;35.00;30.50;;;;;;;;11997616;29;8874;-57
2021/03/11 13:18:58;;;;;;;;;34.00;28.75;;;;;;;;12004506;29;8861;-59
2021/03/11 13:25:02;;;;;;;;;23.50;22.75;;;;;;;;12004735;29;8976;-57
2021/03/11 13:31:04;;;;;;;;;34.25;34.25;;;;;;;;12007947;29;8889;-55
2021/03/11 13:37:05;;;;;;;;;36.75;32.75;;;;;;;;12004733;29;8888;-55
2021/03/11 13:43:06;;;;;;;;;30.50;27.75;;;;;;;;12027550;29;8900;-56
2021/03/11 13:49:09;;;;;;;;;39.75;37.50;;;;;;;;12016791;29;9086;-57
2021/03/11 13:55:13;;;;;;;;;41.00;36.00;;;;;;;;12005901;29;8942;-54
2021/03/11 14:01:18;;;;;;;;;44.75;40.25;;;;;;;;11997990;29;8911;-58
2021/03/11 14:07:24;;;;;;;;;33.25;32.00;;;;;;;;12000481;29;8880;-55
2021/03/11 14:13:25;;;;;;;;;31.50;29.25;;;;;;;;12003565;29;8876;-57
2021/03/11 14:19:28;;;;;;;;;43.50;36.50;;;;;;;;12001646;29;9678;-57
2021/03/11 14:25:29;;;;;;;;;41.75;38.25;;;;;;;;12006044;29;8883;-57
2021/03/11 14:31:32;;;;;;;;;31.25;29.50;;;;;;;;12012559;29;8876;-55
2021/03/11 14:37:48;;;;;;;;;40.75;37.50;;;;;;;;11993022;29;8985;-55
2021/03/11 14:43:50;;;;;;;;;51.75;42.25;;;;;;;;12010785;29;8876;-52
2021/03/11 14:49:51;;;;;;;;;50.25;42.25;;;;;;;;12000788;29;8888;-56
2021/03/11 14:55:53;;;;;;;;;51.00;44.50;;;;;;;;11976669;29;8890;-58
2021/03/11 15:01:55;;;;;;;;;40.75;38.00;;;;;;;;11960236;29;8897;-57
2021/03/11 15:08:12;;;;;;;;;41.25;39.50;;;;;;;;11980501;29;8856;-57
2021/03/11 15:14:14;;;;;;;;;44.50;40.00;;;;;;;;12007354;29;8876;-55
2021/03/11 15:20:16;;;;;;;;;40.50;39.50;;;;;;;;11982480;29;8898;-54
2021/03/11 15:26:17;;;;;;;;;39.25;36.00;;;;;;;;11961855;29;8957;-55
2021/03/11 15:32:19;;;;;;;;;46.25;43.00;;;;;;;;11964966;29;8890;-56
2021/03/11 15:38:37;;;;;;;;;45.25;43.00;;;;;;;;11964864;29;8877;-55
2021/03/11 15:44:38;;;;;;;;;50.75;39.75;;;;;;;;11963924;29;8933;-54
2021/03/11 15:50:40;;;;;;;;;51.25;41.25;;;;;;;;11963178;29;8897;-51
2021/03/11 15:56:41;;;;;;;;;50.75;46.50;;;;;;;;11964075;29;9600;-56
2021/03/11 16:02:44;;;;;;;;;39.50;38.25;;;;;;;;11963795;29;8866;-55
2021/03/11 16:09:01;;;;;;;;;43.33;42.67;;;;;;;;11963248;29;8943;-57
2021/03/11 16:15:03;;;;;;;;;47.33;40.67;;;;;;;;11976568;29;8898;-54
2021/03/11 16:21:04;;;;;;;;;50.67;45.00;;;;;;;;11976234;29;8878;-59
2021/03/11 16:27:07;;;;;;;;;47.33;43.67;;;;;;;;11963417;29;8893;-57
2021/03/11 16:33:08;;;;;;;;;53.67;45.67;;;;;;;;11962829;29;8867;-54
2021/03/11 16:39:26;;;;;;;;;50.00;45.00;;;;;;;;11962739;29;8878;-56
2021/03/11 16:45:28;;;;;;;;;58.67;49.00;;;;;;;;11962282;29;8870;-55
2021/03/11 16:51:33;;;;;;;;;43.33;37.67;;;;;;;;11961511;29;8874;-55
2021/03/11 16:57:35;;;;;;;;;57.00;45.00;;;;;;;;11970586;29;8909;-53
2021/03/11 17:03:36;;;;;;;;;66.33;49.00;;;;;;;;11995982;29;8875;-56
2021/03/11 17:09:51;;;;;;;;;63.33;48.67;;;;;;;;12015906;29;8856;-57
2021/03/11 17:15:52;;;;;;;;;60.67;50.00;;;;;;;;12015234;29;8900;-53
2021/03/11 17:21:54;;;;;;;;;53.67;48.67;;;;;;;;12014604;29;8879;-53
2021/03/11 17:27:55;;;;;;;;;60.67;48.00;;;;;;;;12009807;29;8897;-53
2021/03/11 17:33:57;;;;;;;;;58.33;44.67;;;;;;;;11969508;29;8878;-55
2021/03/11 17:40:12;;;;;;;;;53.00;44.33;;;;;;;;11969727;29;8887;-55
2021/03/11 17:46:14;;;;;;;;;54.67;48.00;;;;;;;;11969007;29;8877;-52
2021/03/11 17:52:15;;;;;;;;;72.67;55.33;;;;;;;;11968501;29;9048;-56
2021/03/11 17:58:17;;;;;;;;;65.67;54.00;;;;;;;;11968006;29;8973;-56
2021/03/11 18:04:18;;;;;;;;;52.67;46.00;;;;;;;;11967544;29;9073;-56
2021/03/11 18:10:33;;;;;;;;;56.67;48.67;;;;;;;;11967540;29;8893;-55
2021/03/11 18:16:35;;;;;;;;;54.00;45.00;;;;;;;;11967436;29;8898;-54
2021/03/11 18:22:37;;;;;;;;;40.33;27.33;;;;;;;;11966444;29;8867;-54
2021/03/11 18:28:38;;;;;;;;;58.00;51.33;;;;;;;;11967837;29;8877;-54
2021/03/11 18:34:39;;;;;;;;;56.67;46.33;;;;;;;;11966404;29;8871;-53
2021/03/11 18:40:56;;;;;;;;;53.67;48.00;;;;;;;;11966651;29;8872;-54
2021/03/11 18:46:57;;;;;;;;;53.00;44.33;;;;;;;;11966428;29;9641;-55
2021/03/11 18:52:59;;;;;;;;;47.00;42.33;;;;;;;;11966386;29;8889;-53
2021/03/11 18:59:02;;;;;;;;;42.33;38.33;;;;;;;;11965829;29;8946;-52
2021/03/11 19:05:06;;;;;;;;;53.67;43.00;;;;;;;;11965502;29;8955;-53
2021/03/11 19:11:19;;;;;;;;;57.67;47.33;;;;;;;;11966090;29;8866;-57
2021/03/11 19:17:21;;;;;;;;;60.67;48.33;;;;;;;;11963840;29;8862;-54
2021/03/11 19:23:22;;;;;;;;;66.67;52.00;;;;;;;;11964838;29;8988;-55
2021/03/11 19:29:24;;;;;;;;;57.33;49.00;;;;;;;;11964565;29;8895;-53
2021/03/11 19:35:28;;;;;;;;;63.00;48.00;;;;;;;;11963421;29;8890;-56
2021/03/11 19:41:40;;;;;;;;;58.33;51.33;;;;;;;;11964602;29;8855;-53
2021/03/11 19:47:42;;;;;;;;;57.67;50.33;;;;;;;;11963510;29;8866;-55
2021/03/11 19:53:44;;;;;;;;;58.33;48.67;;;;;;;;11962190;29;8886;-55
2021/03/11 19:59:47;;;;;;;;;71.67;55.00;;;;;;;;11963494;29;8862;-52
2021/03/11 20:05:49;;;;;;;;;65.33;54.00;;;;;;;;11963992;29;8866;-56
2021/03/11 20:12:06;;;;;;;;;66.33;54.33;;;;;;;;11963340;29;8960;-53
2021/03/11 20:18:07;;;;;;;;;69.67;58.00;;;;;;;;11962762;29;8855;-56
2021/03/11 20:24:10;;;;;;;;;69.67;52.00;;;;;;;;11963533;29;8886;-55
2021/03/11 20:30:13;;;;;;;;;62.33;49.00;;;;;;;;11969822;29;8866;-54
2021/03/11 20:36:14;;;;;;;;;69.00;54.33;;;;;;;;11970885;29;8976;-55
2021/03/11 20:42:38;;;;;;;;;73.67;57.67;;;;;;;;11971665;29;9665;-55
2021/03/11 20:48:40;;;;;;;;;58.00;47.33;;;;;;;;11970485;29;8875;-54
2021/03/11 20:54:42;;;;;;;;;60.67;53.67;;;;;;;;11971226;29;8877;-54
2021/03/11 21:00:43;;;;;;;;;63.33;52.00;;;;;;;;11970026;29;8878;-55
2021/03/11 21:06:46;;;;;;;;;63.33;51.67;;;;;;;;11970061;29;8989;-54
2021/03/11 21:13:03;;;;;;;;;70.67;58.00;;;;;;;;11968330;29;8914;-53
2021/03/11 21:19:05;;;;;;;;;70.67;58.67;;;;;;;;11968656;29;8897;-53
2021/03/11 21:25:08;;;;;;;;;71.67;58.00;;;;;;;;11969470;29;8985;-53
2021/03/11 21:31:10;;;;;;;;;79.33;64.33;;;;;;;;11968612;29;8874;-54
2021/03/11 21:37:12;;;;;;;;;73.67;61.33;;;;;;;;11969177;29;8938;-53
2021/03/11 21:43:23;;;;;;;;;74.33;58.67;;;;;;;;11968761;29;8863;-52
2021/03/11 21:49:24;;;;;;;;;76.67;61.00;;;;;;;;11974379;29;8893;-54
2021/03/11 21:55:26;;;;;;;;;75.67;58.33;;;;;;;;11968782;29;8914;-55
2021/03/11 22:01:27;;;;;;;;;78.00;61.67;;;;;;;;11968162;29;8878;-51
2021/03/11 22:07:29;;;;;;;;;76.00;60.67;;;;;;;;11967797;29;8871;-54
2021/03/11 22:13:46;;;;;;;;;74.33;60.00;;;;;;;;11967692;29;8905;-52
2021/03/11 22:19:48;;;;;;;;;74.33;58.67;;;;;;;;11966856;29;8985;-53
2021/03/11 22:25:50;;;;;;;;;78.67;61.00;;;;;;;;11967418;29;9584;-55
2021/03/11 22:31:51;;;;;;;;;75.67;60.33;;;;;;;;11966255;29;8900;-49
2021/03/11 22:37:53;;;;;;;;;76.33;60.67;;;;;;;;11993848;29;8859;-54
2021/03/11 22:44:10;;;;;;;;;71.67;60.33;;;;;;;;12012101;29;8974;-54
2021/03/11 22:50:12;;;;;;;;;64.67;52.67;;;;;;;;12009794;29;8887;-50
2021/03/11 22:56:14;;;;;;;;;75.33;58.00;;;;;;;;12010881;29;8900;-55
2021/03/11 23:02:16;;;;;;;;;68.33;54.67;;;;;;;;12009272;29;9054;-52
2021/03/11 23:08:18;;;;;;;;;74.33;55.33;;;;;;;;12009709;29;8863;-51
2021/03/11 23:14:32;;;;;;;;;70.67;60.00;;;;;;;;12010788;29;9618;-53
2021/03/11 23:20:34;;;;;;;;;64.67;56.00;;;;;;;;12009686;29;8859;-54
2021/03/11 23:26:36;;;;;;;;;52.00;48.33;;;;;;;;12010445;29;8876;-52
2021/03/11 23:32:38;;;;;;;;;71.67;58.67;;;;;;;;12008796;29;8871;-51
2021/03/11 23:38:43;;;;;;;;;73.33;57.67;;;;;;;;12009551;29;8860;-52
2021/03/11 23:44:55;;;;;;;;;69.00;56.33;;;;;;;;12008241;29;8880;-53
2021/03/11 23:50:59;;;;;;;;;71.00;55.33;;;;;;;;12008689;29;8876;-50
2021/03/11 23:57:00;;;;;;;;;73.67;59.33;;;;;;;;12008413;29;8855;-52
